createdAt,value
2022-11-13T00:05:00.012Z,9.47
2022-11-13T00:15:20.226Z,8.88
2022-11-13T00:25:40.228Z,8.49
2022-11-13T00:36:08.815Z,8.55
2022-11-13T00:46:30.077Z,8.61
2022-11-13T00:56:49.981Z,8.05
2022-11-13T01:07:09.960Z,8.13
2022-11-13T01:17:30.221Z,8.21
2022-11-13T01:27:50.322Z,8.19
2022-11-13T01:38:10.228Z,8.00
2022-11-13T01:48:40.251Z,8.25
2022-11-13T01:59:15.198Z,7.98
2022-11-13T02:09:56.199Z,7.71
2022-11-13T02:20:17.432Z,8.06
2022-11-13T02:30:37.728Z,7.55
2022-11-13T02:40:57.990Z,7.64
2022-11-13T02:51:17.946Z,7.33
2022-11-13T03:01:38.141Z,7.34
2022-11-13T03:11:58.567Z,7.34
2022-11-13T03:22:18.737Z,7.02
2022-11-13T03:32:39.188Z,7.15
2022-11-13T03:42:59.505Z,7.28
2022-11-13T03:53:19.912Z,7.13
2022-11-13T04:03:40.084Z,6.68
2022-11-13T04:14:00.120Z,6.70
2022-11-13T04:24:19.854Z,6.87
2022-11-13T04:34:39.742Z,7.17
2022-11-13T04:44:59.948Z,7.28
2022-11-13T04:55:20.203Z,7.52
2022-11-13T05:05:40.436Z,7.38
2022-11-13T05:16:02.793Z,7.08
2022-11-13T05:26:22.975Z,7.26
2022-11-13T05:36:43.137Z,7.51
2022-11-13T05:47:03.059Z,7.48
2022-11-13T05:57:23.111Z,7.63
2022-11-13T06:07:43.288Z,7.44
2022-11-13T06:18:03.317Z,7.29
2022-11-13T06:28:23.700Z,7.22
2022-11-13T06:38:44.306Z,6.73
2022-11-13T06:49:04.571Z,6.85
2022-11-13T06:59:25.062Z,7.07
2022-11-13T07:09:45.018Z,7.29
2022-11-13T07:20:05.449Z,7.49
2022-11-13T07:30:25.967Z,7.56
2022-11-13T07:40:46.197Z,7.73
2022-11-13T07:51:06.111Z,7.89
2022-11-13T08:01:26.580Z,8.03
2022-11-13T08:11:46.718Z,8.40
2022-11-13T08:22:06.837Z,8.75
2022-11-13T08:32:27.090Z,13.54
2022-11-13T08:42:47.363Z,25.27
2022-11-13T08:53:07.626Z,29.91
2022-11-13T09:03:27.893Z,31.24
2022-11-13T09:13:52.971Z,29.91
2022-11-13T09:24:13.675Z,29.65
2022-11-13T09:34:34.428Z,29.66
2022-11-13T09:45:02.124Z,29.82
2022-11-13T09:55:30.099Z,30.25
2022-11-13T10:06:02.420Z,28.51
2022-11-13T10:16:40.875Z,27.01
2022-11-13T10:27:01.213Z,25.15
2022-11-13T10:37:40.031Z,23.94
2022-11-13T10:48:05.214Z,25.20
2022-11-13T10:58:25.625Z,23.99
2022-11-13T11:08:46.154Z,23.15
2022-11-13T11:19:11.176Z,18.81
2022-11-13T11:29:54.432Z,15.91
2022-11-13T11:40:26.962Z,15.39
2022-11-13T11:51:00.344Z,15.23
2022-11-13T12:01:29.534Z,15.16
2022-11-13T12:11:56.974Z,15.53
2022-11-13T12:22:46.525Z,15.91
2022-11-13T12:33:23.864Z,15.98
2022-11-13T12:43:53.151Z,16.36
2022-11-13T12:54:13.029Z,16.24
2022-11-13T13:05:00.891Z,16.50
2022-11-13T13:15:28.984Z,16.22
2022-11-13T13:25:49.116Z,16.08
2022-11-13T13:36:27.970Z,15.58
2022-11-13T13:46:48.897Z,15.32
2022-11-13T13:57:14.742Z,15.00
2022-11-13T14:07:35.937Z,14.91
2022-11-13T14:18:07.081Z,14.44
2022-11-13T14:28:33.841Z,14.53
2022-11-13T14:38:54.378Z,14.38
2022-11-13T14:49:30.911Z,14.10
2022-11-13T14:59:50.913Z,13.88
2022-11-13T15:10:15.582Z,13.58
2022-11-13T15:20:36.690Z,13.43
2022-11-13T15:30:56.823Z,13.40
2022-11-13T15:41:23.971Z,13.31
2022-11-13T15:51:46.375Z,13.10
2022-11-13T16:02:06.772Z,12.93
2022-11-13T16:12:26.681Z,12.64
2022-11-13T16:22:46.554Z,12.47
2022-11-13T16:33:09.891Z,12.25
2022-11-13T16:43:30.264Z,12.02
2022-11-13T16:53:50.919Z,11.90
2022-11-13T17:04:14.204Z,11.90
2022-11-13T17:14:37.683Z,11.69
2022-11-13T17:24:57.592Z,11.62
2022-11-13T17:35:17.780Z,11.57
2022-11-13T17:45:38.851Z,11.33
2022-11-13T17:56:01.757Z,11.31
2022-11-13T18:06:22.104Z,11.04
2022-11-13T18:16:41.905Z,10.91
2022-11-13T18:27:02.264Z,10.89
2022-11-13T18:37:22.149Z,10.73
2022-11-13T18:47:42.552Z,10.55
2022-11-13T18:58:02.661Z,10.47
2022-11-13T19:08:22.669Z,10.27
2022-11-13T19:18:44.868Z,10.30
2022-11-13T19:29:05.155Z,10.19
2022-11-13T19:39:25.701Z,10.00
2022-11-13T19:49:46.006Z,9.88
2022-11-13T20:00:06.967Z,9.76
2022-11-13T20:10:27.270Z,9.66
2022-11-13T20:20:51.751Z,9.68
2022-11-13T20:31:19.446Z,9.57
2022-11-13T20:41:39.787Z,9.58
2022-11-13T20:51:59.585Z,9.50
2022-11-13T21:02:19.449Z,9.44
2022-11-13T21:12:39.473Z,9.38
2022-11-13T21:22:59.422Z,9.43
2022-11-13T21:33:20.097Z,9.30
2022-11-13T21:43:40.131Z,9.23
2022-11-13T21:54:00.897Z,9.19
2022-11-13T22:04:21.248Z,9.06
2022-11-13T22:14:41.420Z,9.13
2022-11-13T22:25:01.475Z,9.02
2022-11-13T22:35:21.705Z,9.00
2022-11-13T22:45:42.981Z,8.89
2022-11-13T22:56:07.684Z,8.70
2022-11-13T23:06:30.154Z,8.45
2022-11-13T23:16:50.215Z,8.28
2022-11-13T23:27:10.046Z,8.10
2022-11-13T23:37:29.858Z,7.83
2022-11-13T23:47:49.654Z,7.60
2022-11-13T23:58:11.854Z,7.53
